Time;durP1;ratioP1;P1;durP2;ratioP2;P2;SDS_P1;SDS_P2;PMS_P1;PMS_P2;Temp;Humidity;BMP_temperature;BMP_pressure;BME280_temperature;BME280_humidity;BME280_pressure;Samples;Min_cycle;Max_cycle;Signal;HPM_P1;HPM_P2
2022/06/20 00:02:16;;;;;;;;;;;;;;;11.86;100.00;99314.16;5053138;28;20302;-78
2022/06/20 00:04:43;;;;;;;;;;;;;;;11.57;100.00;99312.25;5074577;28;19925;-78
2022/06/20 00:07:12;;;;;;;;;;;;;;;11.58;100.00;99314.63;5073977;28;20352;-78
2022/06/20 00:09:39;;;;;;;;;;;;;;;12.13;100.00;99317.69;5074150;28;19928;-78
2022/06/20 00:12:07;;;;;;;;;;;;;;;12.24;100.00;99307.09;5074835;28;20353;-78
2022/06/20 00:14:35;;;;;;;;;;;;;;;12.34;100.00;99306.09;5066179;28;20324;-78
2022/06/20 00:17:02;;;;;;;;;;;;;;;11.91;100.00;99302.50;5075230;28;19924;-78
2022/06/20 00:19:29;;;;;;;;;;;;;;;11.93;100.00;99305.66;5075190;28;19924;-78
2022/06/20 00:21:56;;;;;;;;;;;;;;;12.00;100.00;99302.72;5074920;28;19924;-78
2022/06/20 00:24:24;;;;;;;;;;;;;;;11.92;100.00;99298.47;5072914;28;20372;-78
2022/06/20 00:26:52;;;;;;;;;;;;;;;11.76;100.00;99308.75;5073515;28;19924;-78
2022/06/20 00:31:44;;;;;;;;;;;;;;;12.04;100.00;99300.66;5090007;28;20329;-79
2022/06/20 00:34:13;;;;;;;;;;;;;;;11.79;100.00;99297.50;5086629;28;19974;-79
2022/06/20 00:36:40;;;;;;;;;;;;;;;11.19;100.00;99303.25;5071013;28;19925;-79
2022/06/20 00:39:09;;;;;;;;;;;;;;;11.50;100.00;99304.75;5090577;28;19931;-79
2022/06/20 00:41:36;;;;;;;;;;;;;;;11.44;100.00;99303.66;5089799;28;19928;-79
2022/06/20 00:44:03;;;;;;;;;;;;;;;11.13;100.00;99299.34;5091284;28;19925;-79
2022/06/20 00:46:51;;;;;;;;;;;;;;;11.43;100.00;99309.66;5090228;28;20330;-79
2022/06/20 00:49:41;;;;;;;;;;;;;;;11.66;100.00;99309.75;5090987;28;20271;-79
2022/06/20 00:52:49;;;;;;;;;;;;;;;11.59;100.00;99305.00;5090978;28;20066;-79
2022/06/20 00:55:44;;;;;;;;;;;;;;;11.02;100.00;99315.47;5090829;28;20367;-79
2022/06/20 00:58:33;;;;;;;;;;;;;;;11.47;100.00;99307.59;5090885;28;19925;-79
2022/06/20 01:01:24;;;;;;;;;;;;;;;11.55;100.00;99321.06;5090742;28;20018;-79
2022/06/20 01:04:14;;;;;;;;;;;;;;;11.29;100.00;99324.66;5090842;28;19925;-79
2022/06/20 01:07:02;;;;;;;;;;;;;;;11.22;100.00;99327.56;5090689;28;19924;-79
2022/06/20 01:09:50;;;;;;;;;;;;;;;11.22;100.00;99326.78;5089605;28;19924;-79
2022/06/20 01:12:41;;;;;;;;;;;;;;;10.99;100.00;99325.47;5070494;28;20424;-79
2022/06/20 01:15:33;;;;;;;;;;;;;;;10.16;100.00;99346.84;5070379;28;20271;-79
2022/06/20 01:18:19;;;;;;;;;;;;;;;10.73;100.00;99345.00;5069262;28;20007;-79
2022/06/20 01:21:09;;;;;;;;;;;;;;;10.03;100.00;99354.09;5070096;28;19978;-79
2022/06/20 01:24:05;;;;;;;;;;;;;;;10.32;100.00;99355.44;5068868;28;19932;-79
2022/06/20 01:27:09;;;;;;;;;;;;;;;10.25;100.00;99355.53;5069214;28;19932;-79
2022/06/20 01:29:54;;;;;;;;;;;;;;;10.08;100.00;99350.91;5054742;28;20453;-79
2022/06/20 01:32:40;;;;;;;;;;;;;;;10.31;100.00;99353.88;5069054;28;19924;-79
2022/06/20 01:38:32;;;;;;;;;;;;;;;10.41;100.00;99350.16;5069666;28;20066;-79
2022/06/20 01:44:22;;;;;;;;;;;;;;;10.39;100.00;99333.03;5055590;28;19931;-78
2022/06/20 01:47:08;;;;;;;;;;;;;;;10.25;100.00;99330.38;5055490;28;19931;-79
2022/06/20 01:50:02;;;;;;;;;;;;;;;10.46;100.00;99322.56;5056248;28;19979;-78
2022/06/20 01:52:47;;;;;;;;;;;;;;;10.61;100.00;99323.19;5056116;28;19924;-78
2022/06/20 01:55:34;;;;;;;;;;;;;;;10.92;100.00;99313.59;5056201;28;19974;-78
2022/06/20 01:58:26;;;;;;;;;;;;;;;10.99;100.00;99322.69;5056174;28;19928;-79
2022/06/20 02:01:14;;;;;;;;;;;;;;;10.70;100.00;99323.47;5056253;28;19925;-79
2022/06/20 02:04:01;;;;;;;;;;;;;;;11.02;100.00;99304.28;5056180;28;20405;-79
2022/06/20 02:06:48;;;;;;;;;;;;;;;10.32;100.00;99317.13;5055978;28;19935;-79
2022/06/20 02:09:33;;;;;;;;;;;;;;;10.57;100.00;99312.03;5056120;28;19935;-79
2022/06/20 02:12:20;;;;;;;;;;;;;;;10.31;100.00;99325.94;5054648;28;19931;-79
2022/06/20 02:15:06;;;;;;;;;;;;;;;10.85;100.00;99327.69;5040584;28;19924;-79
2022/06/20 02:17:52;;;;;;;;;;;;;;;10.67;100.00;99327.91;5055903;28;20276;-78
2022/06/20 02:20:45;;;;;;;;;;;;;;;10.87;100.00;99325.25;5059589;28;19925;-79
2022/06/20 02:23:35;;;;;;;;;;;;;;;10.45;100.00;99320.19;5074712;28;19974;-79
2022/06/20 02:26:22;;;;;;;;;;;;;;;10.56;100.00;99318.06;5060832;28;19925;-79
2022/06/20 02:29:27;;;;;;;;;;;;;;;9.76;100.00;99330.81;5075679;28;19960;-79
2022/06/20 02:32:24;;;;;;;;;;;;;;;10.40;100.00;99331.81;5074453;28;19931;-79
2022/06/20 02:35:12;;;;;;;;;;;;;;;10.48;100.00;99327.75;5074775;28;19925;-78
2022/06/20 02:37:58;;;;;;;;;;;;;;;10.55;100.00;99324.84;5074387;28;19951;-78
2022/06/20 02:40:43;;;;;;;;;;;;;;;10.81;100.00;99329.72;5075517;28;19958;-79
2022/06/20 02:43:34;;;;;;;;;;;;;;;10.82;100.00;99322.91;5075418;28;20619;-79
2022/06/20 02:46:23;;;;;;;;;;;;;;;10.86;100.00;99320.84;5075352;28;20015;-79
2022/06/20 02:49:10;;;;;;;;;;;;;;;9.99;100.00;99319.84;5075321;28;19924;-79
2022/06/20 02:51:57;;;;;;;;;;;;;;;9.05;100.00;99328.56;5074997;28;20279;-79
2022/06/20 02:54:43;;;;;;;;;;;;;;;9.01;100.00;99336.13;5074299;28;19925;-79
2022/06/20 02:57:31;;;;;;;;;;;;;;;9.65;100.00;99335.72;5074212;28;19970;-78
2022/06/20 03:00:19;;;;;;;;;;;;;;;10.18;100.00;99333.22;5075238;28;19936;-79
2022/06/20 03:03:17;;;;;;;;;;;;;;;9.88;100.00;99333.09;5074996;28;19930;-79
2022/06/20 03:06:05;;;;;;;;;;;;;;;10.17;100.00;99332.47;5073517;28;19968;-79
2022/06/20 03:08:52;;;;;;;;;;;;;;;10.43;100.00;99342.16;5074912;28;19936;-79
2022/06/20 03:11:39;;;;;;;;;;;;;;;9.66;100.00;99343.66;5073603;28;20019;-79
2022/06/20 03:14:27;;;;;;;;;;;;;;;9.23;100.00;99363.88;5074787;28;19925;-79
2022/06/20 03:17:15;;;;;;;;;;;;;;;9.30;100.00;99369.44;5074688;28;19932;-78
2022/06/20 03:20:04;;;;;;;;;;;;;;;9.73;100.00;99367.91;5074941;28;19924;-79
2022/06/20 03:23:08;;;;;;;;;;;;;;;9.78;100.00;99370.28;5074604;28;20383;-79
2022/06/20 03:25:55;;;;;;;;;;;;;;;9.54;100.00;99385.19;5074632;28;20022;-78
2022/06/20 03:28:41;;;;;;;;;;;;;;;9.87;100.00;99388.16;5073349;28;19924;-79
2022/06/20 03:31:26;;;;;;;;;;;;;;;9.62;100.00;99395.88;5073228;28;19925;-78
2022/06/20 03:34:12;;;;;;;;;;;;;;;10.07;100.00;99405.94;5073277;28;20314;-79
2022/06/20 03:36:58;;;;;;;;;;;;;;;10.10;100.00;99415.50;5074433;28;19925;-79
2022/06/20 03:39:45;;;;;;;;;;;;;;;10.35;100.00;99416.88;5074353;28;19928;-79
2022/06/20 03:42:31;;;;;;;;;;;;;;;9.24;100.00;99429.59;5074152;28;19925;-79
2022/06/20 03:45:17;;;;;;;;;;;;;;;9.02;100.00;99434.47;5073066;28;19928;-78
2022/06/20 03:48:06;;;;;;;;;;;;;;;9.61;100.00;99435.34;5073173;28;20531;-78
2022/06/20 03:50:57;;;;;;;;;;;;;;;10.24;100.00;99443.28;5068627;28;19925;-83
2022/06/20 03:53:48;;;;;;;;;;;;;;;10.46;100.00;99444.69;5053218;28;19994;-78
2022/06/20 03:56:45;;;;;;;;;;;;;;;10.79;100.00;99438.34;5061810;28;20398;-77
2022/06/20 03:59:35;;;;;;;;;;;;;;;10.72;100.00;99444.81;5073986;28;19986;-77
2022/06/20 04:02:24;;;;;;;;;;;;;;;11.06;100.00;99444.84;5073648;28;20371;-78
2022/06/20 04:05:20;;;;;;;;;;;;;;;10.97;100.00;99441.75;5073588;28;19967;-78
2022/06/20 04:08:09;;;;;;;;;;;;;;;10.94;100.00;99448.16;5073921;28;19925;-77
2022/06/20 04:10:58;;;;;;;;;;;;;;;11.17;100.00;99453.91;5071991;28;19928;-77
2022/06/20 04:13:52;;;;;;;;;;;;;;;11.37;100.00;99443.66;5053671;28;19975;-78
2022/06/20 04:16:48;;;;;;;;;;;;;;;11.56;100.00;99442.97;5053446;28;19925;-77
2022/06/20 04:19:38;;;;;;;;;;;;;;;11.69;100.00;99444.00;5053564;28;20303;-78
2022/06/20 04:22:33;;;;;;;;;;;;;;;11.85;100.00;99449.78;5052682;28;20331;-78
2022/06/20 04:25:26;;;;;;;;;;;;;;;11.82;100.00;99453.44;5053587;28;20023;-78
2022/06/20 04:28:18;;;;;;;;;;;;;;;11.74;100.00;99462.38;5053640;28;20026;-78
2022/06/20 04:31:04;;;;;;;;;;;;;;;11.70;100.00;99472.81;5052181;28;20039;-78
2022/06/20 04:34:01;;;;;;;;;;;;;;;11.55;100.00;99468.59;5053461;28;20011;-78
2022/06/20 04:36:58;;;;;;;;;;;;;;;11.10;100.00;99467.97;5053590;28;19971;-77
2022/06/20 04:39:56;;;;;;;;;;;;;;;11.16;100.00;99477.50;5053651;28;19924;-78
2022/06/20 04:42:46;;;;;;;;;;;;;;;10.67;100.00;99486.41;5052314;28;20280;-77
2022/06/20 04:45:37;;;;;;;;;;;;;;;11.22;100.00;99492.59;5052351;28;19981;-77
2022/06/20 04:48:23;;;;;;;;;;;;;;;11.30;100.00;99494.09;5038115;28;20360;-77
2022/06/20 04:51:12;;;;;;;;;;;;;;;10.66;100.00;99487.63;5053293;28;20387;-78
2022/06/20 04:53:59;;;;;;;;;;;;;;;10.23;100.00;99489.97;5053493;28;20331;-77
2022/06/20 04:56:47;;;;;;;;;;;;;;;10.44;100.00;99511.34;5071005;28;20008;-77
2022/06/20 04:59:33;;;;;;;;;;;;;;;11.12;100.00;99503.91;5073307;28;20260;-78
2022/06/20 05:02:20;;;;;;;;;;;;;;;11.52;100.00;99506.63;5073342;28;19925;-78
2022/06/20 05:05:12;;;;;;;;;;;;;;;11.57;100.00;99497.72;5073490;28;20264;-78
2022/06/20 05:08:01;;;;;;;;;;;;;;;11.52;100.00;99489.03;5073330;28;20291;-77
2022/06/20 05:10:51;;;;;;;;;;;;;;;11.51;100.00;99491.00;5073391;28;19987;-77
2022/06/20 05:13:46;;;;;;;;;;;;;;;11.54;100.00;99495.78;5073283;28;19932;-78
2022/06/20 05:16:42;;;;;;;;;;;;;;;11.35;100.00;99492.81;5065143;28;20351;-78
2022/06/20 05:19:32;;;;;;;;;;;;;;;11.20;100.00;99497.81;5071931;28;19955;-78
2022/06/20 05:22:26;;;;;;;;;;;;;;;11.54;100.00;99497.78;5076958;28;19935;-77
2022/06/20 05:25:16;;;;;;;;;;;;;;;12.01;100.00;99494.75;5077031;28;19960;-78
2022/06/20 05:28:05;;;;;;;;;;;;;;;12.15;100.00;99499.34;5075881;28;19931;-78
2022/06/20 05:30:51;;;;;;;;;;;;;;;11.92;100.00;99497.28;5076327;28;19925;-77
2022/06/20 05:33:43;;;;;;;;;;;;;;;12.03;100.00;99489.53;5076888;28;20362;-77
2022/06/20 05:36:19;;;;;;;;;;;;;;;12.24;100.00;99492.00;5076767;28;20371;-78
2022/06/20 05:38:52;;;;;;;;;;;;;;;12.09;100.00;99490.63;5056390;28;19932;-78
2022/06/20 05:41:20;;;;;;;;;;;;;;;12.23;100.00;99496.03;5056799;28;19947;-78
2022/06/20 05:43:47;;;;;;;;;;;;;;;12.38;100.00;99491.78;5056564;28;20008;-78
2022/06/20 05:46:27;;;;;;;;;;;;;;;12.48;100.00;99507.59;5055240;28;19925;-78
2022/06/20 05:48:59;;;;;;;;;;;;;;;12.57;100.00;99505.03;5056719;28;19924;-78
2022/06/20 05:51:27;;;;;;;;;;;;;;;12.60;100.00;99509.81;5055493;28;19925;-78
2022/06/20 05:53:57;;;;;;;;;;;;;;;12.63;100.00;99520.16;5056415;28;20446;-78
2022/06/20 05:56:27;;;;;;;;;;;;;;;13.14;100.00;99518.88;5056135;28;19936;-78
2022/06/20 05:58:55;;;;;;;;;;;;;;;13.46;100.00;99523.88;5056465;28;19931;-78
2022/06/20 06:01:25;;;;;;;;;;;;;;;14.16;100.00;99519.53;5055995;28;19932;-78
2022/06/20 06:03:57;;;;;;;;;;;;;;;14.63;100.00;99508.78;5056389;28;19925;-78
2022/06/20 06:06:31;;;;;;;;;;;;;;;14.77;100.00;99520.44;5055088;28;20447;-78
2022/06/20 06:09:11;;;;;;;;;;;;;;;14.57;100.00;99511.31;5055962;28;19924;-78
2022/06/20 06:11:52;;;;;;;;;;;;;;;14.60;100.00;99516.06;5055811;28;19968;-78
2022/06/20 06:14:25;;;;;;;;;;;;;;;14.62;100.00;99510.78;5055999;28;19932;-77
2022/06/20 06:16:56;;;;;;;;;;;;;;;15.23;100.00;99508.78;5060351;28;20261;-77
2022/06/20 06:19:41;;;;;;;;;;;;;;;15.17;100.00;99504.91;5073324;28;19924;-76
2022/06/20 06:22:11;;;;;;;;;;;;;;;15.83;100.00;99510.66;5057721;28;19924;-78
2022/06/20 06:24:40;;;;;;;;;;;;;;;15.18;100.00;99505.69;5074575;28;19925;-77
2022/06/20 06:27:10;;;;;;;;;;;;;;;15.14;100.00;99511.44;5074514;28;20426;-78
2022/06/20 06:29:37;;;;;;;;;;;;;;;14.72;100.00;99523.00;5075353;28;19924;-77
2022/06/20 06:32:11;;;;;;;;;;;;;;;15.26;100.00;99510.69;5074336;28;19981;-78
2022/06/20 06:34:50;;;;;;;;;;;;;;;15.31;100.00;99512.94;5075686;28;19932;-79
2022/06/20 06:37:21;;;;;;;;;;;;;;;15.30;100.00;99514.19;5075865;28;19989;-79
2022/06/20 06:40:01;;;;;;;;;;;;;;;14.93;100.00;99499.94;5074376;28;19932;-79
2022/06/20 06:42:28;;;;;;;;;;;;;;;15.29;100.00;99501.34;5074257;28;19928;-78
2022/06/20 06:44:57;;;;;;;;;;;;;;;15.34;100.00;99497.97;5075337;28;19925;-78
2022/06/20 06:47:24;;;;;;;;;;;;;;;15.19;100.00;99491.16;5075624;28;19939;-78
2022/06/20 06:49:54;;;;;;;;;;;;;;;15.02;100.00;99509.34;5075582;28;19974;-78
2022/06/20 06:52:21;;;;;;;;;;;;;;;15.07;100.00;99517.22;5075283;28;19932;-78
2022/06/20 06:55:03;;;;;;;;;;;;;;;15.19;100.00;99508.06;5073857;28;19928;-78
2022/06/20 06:57:50;;;;;;;;;;;;;;;15.41;100.00;99511.91;5073867;28;19931;-78
2022/06/20 07:00:23;;;;;;;;;;;;;;;16.49;100.00;99497.75;5073931;28;19929;-78
2022/06/20 07:02:54;;;;;;;;;;;;;;;17.83;100.00;99488.88;5073920;28;19924;-78
2022/06/20 07:05:36;;;;;;;;;;;;;;;19.55;100.00;99476.75;5073578;28;19924;-79
2022/06/20 07:08:23;;;;;;;;;;;;;;;21.10;100.00;99463.50;5073682;28;20264;-79
2022/06/20 07:10:57;;;;;;;;;;;;;;;21.73;100.00;99453.63;5056727;28;19924;-79
2022/06/20 07:13:45;;;;;;;;;;;;;;;21.80;100.00;99451.19;5074854;28;19931;-79
2022/06/20 07:16:20;;;;;;;;;;;;;;;22.61;100.00;99449.44;5073428;28;19925;-79
2022/06/20 07:18:50;;;;;;;;;;;;;;;22.30;100.00;99447.13;5073568;28;20015;-79
2022/06/20 07:21:19;;;;;;;;;;;;;;;21.64;100.00;99460.19;5074581;28;19932;-79
2022/06/20 07:23:55;;;;;;;;;;;;;;;21.03;100.00;99466.72;5074590;28;19924;-79
2022/06/20 07:26:24;;;;;;;;;;;;;;;19.63;100.00;99478.00;5067069;28;19931;-82
2022/06/20 07:28:57;;;;;;;;;;;;;;;19.89;100.00;99469.16;5053356;28;19925;-82
2022/06/20 07:31:34;;;;;;;;;;;;;;;19.44;100.00;99453.81;5036976;28;19925;-80
2022/06/20 07:34:06;;;;;;;;;;;;;;;19.64;100.00;99473.91;5054789;28;19925;-80
2022/06/20 07:36:38;;;;;;;;;;;;;;;21.98;100.00;99468.06;5054755;28;20360;-80
2022/06/20 07:39:11;;;;;;;;;;;;;;;23.57;100.00;99456.63;5052985;28;19971;-81
2022/06/20 07:41:40;;;;;;;;;;;;;;;25.57;100.00;99461.13;5037190;28;19935;-81
2022/06/20 07:44:21;;;;;;;;;;;;;;;25.55;100.00;99446.56;5053516;28;19925;-81
2022/06/20 07:46:53;;;;;;;;;;;;;;;26.83;100.00;99439.56;5053517;28;19924;-82
2022/06/20 07:49:25;;;;;;;;;;;;;;;26.71;100.00;99445.84;5054710;28;19970;-82
2022/06/20 07:51:56;;;;;;;;;;;;;;;25.96;100.00;99453.38;5036982;28;20019;-81
2022/06/20 07:54:27;;;;;;;;;;;;;;;24.65;100.00;99455.25;5054604;28;20392;-82
2022/06/20 07:57:00;;;;;;;;;;;;;;;24.07;100.00;99449.31;5054535;28;19979;-82
2022/06/20 07:59:34;;;;;;;;;;;;;;;24.07;100.00;99450.13;5036858;28;19959;-81
2022/06/20 08:02:10;;;;;;;;;;;;;;;23.50;100.00;99457.03;5054514;28;19934;-81
2022/06/20 08:04:38;;;;;;;;;;;;;;;24.41;100.00;99445.44;5053489;28;19931;-82
2022/06/20 08:07:05;;;;;;;;;;;;;;;24.93;100.00;99443.19;5053125;28;19979;-82
2022/06/20 08:10:05;;;;;;;;;;;;;;;24.87;100.00;99448.09;5053240;28;19974;-82
2022/06/20 08:12:57;;;;;;;;;;;;;;;24.94;100.00;99450.47;5053262;28;19956;-82
2022/06/20 08:15:31;;;;;;;;;;;;;;;24.62;100.00;99449.75;5054358;28;19978;-79
2022/06/20 08:17:59;;;;;;;;;;;;;;;25.30;100.00;99458.94;5054015;28;19925;-81
2022/06/20 08:20:30;;;;;;;;;;;;;;;25.89;100.00;99441.66;5053109;28;19925;-79
2022/06/20 08:23:04;;;;;;;;;;;;;;;26.41;100.00;99443.53;5069468;28;19925;-80
2022/06/20 08:25:35;;;;;;;;;;;;;;;26.09;100.00;99436.53;5068720;28;19960;-79
2022/06/20 08:28:03;;;;;;;;;;;;;;;26.23;100.00;99444.06;5061644;28;19931;-77
2022/06/20 08:30:41;;;;;;;;;;;;;;;26.71;100.00;99432.31;5049463;28;19924;-79
2022/06/20 08:33:20;;;;;;;;;;;;;;;26.06;100.00;99434.69;5048405;28;20019;-79
2022/06/20 08:35:54;;;;;;;;;;;;;;;26.79;100.00;99427.59;5060253;28;19924;-79
2022/06/20 08:38:27;;;;;;;;;;;;;;;26.52;100.00;99427.63;5051788;28;19924;-78
2022/06/20 08:40:58;;;;;;;;;;;;;;;26.52;100.00;99439.88;5069447;28;19929;-78
2022/06/20 08:43:44;;;;;;;;;;;;;;;27.05;100.00;99438.72;5060589;28;19939;-79
2022/06/20 08:46:11;;;;;;;;;;;;;;;26.41;100.00;99437.81;5069366;28;19929;-80
2022/06/20 08:48:50;;;;;;;;;;;;;;;25.44;100.00;99420.81;5064624;28;20294;-80
2022/06/20 08:51:17;;;;;;;;;;;;;;;25.41;100.00;99427.56;5066061;28;20390;-79
2022/06/20 08:53:56;;;;;;;;;;;;;;;25.83;100.00;99444.53;5069706;28;19925;-80
2022/06/20 08:56:33;;;;;;;;;;;;;;;26.92;100.00;99435.63;5073393;28;19938;-80
2022/06/20 08:59:16;;;;;;;;;;;;;;;27.57;100.00;99428.03;5073458;28;19924;-79
2022/06/20 09:01:50;;;;;;;;;;;;;;;26.53;100.00;99427.09;5073031;28;19934;-81
2022/06/20 09:04:29;;;;;;;;;;;;;;;27.12;100.00;99423.81;5073717;28;19928;-79
2022/06/20 09:06:56;;;;;;;;;;;;;;;26.56;100.00;99422.41;5074155;28;19950;-88
2022/06/20 09:09:23;;;;;;;;;;;;;;;27.10;100.00;99429.28;5057631;28;20256;-82
2022/06/20 09:12:00;;;;;;;;;;;;;;;27.53;100.00;99421.81;5072807;28;19924;-83
2022/06/20 09:14:31;;;;;;;;;;;;;;;27.07;100.00;99413.13;5072783;28;19994;-81
2022/06/20 09:17:27;;;;;;;;;;;;;;;27.29;100.00;99422.47;5073011;28;19960;-79
2022/06/20 09:19:54;;;;;;;;;;;;;;;25.22;100.00;99417.06;5070396;28;19925;-80
2022/06/20 09:22:39;;;;;;;;;;;;;;;25.13;100.00;99420.91;5051575;28;19935;-80
2022/06/20 09:25:25;;;;;;;;;;;;;;;24.73;100.00;99422.03;5070101;28;20295;-79
2022/06/20 09:28:11;;;;;;;;;;;;;;;25.97;100.00;99431.28;5070403;28;19978;-80
2022/06/20 09:30:56;;;;;;;;;;;;;;;26.04;100.00;99425.84;5071060;28;19967;-82
2022/06/20 09:33:38;;;;;;;;;;;;;;;25.08;100.00;99418.84;5055437;28;19925;-83
2022/06/20 09:36:14;;;;;;;;;;;;;;;25.18;100.00;99439.41;5071804;28;19928;-81
2022/06/20 09:39:10;;;;;;;;;;;;;;;25.58;100.00;99428.34;5071765;28;20010;-81
2022/06/20 09:41:57;;;;;;;;;;;;;;;25.18;100.00;99419.38;4994975;28;19945;-81
2022/06/20 09:44:39;;;;;;;;;;;;;;;25.41;100.00;99424.69;4995496;28;19937;-83
2022/06/20 09:47:09;;;;;;;;;;;;;;;22.81;100.00;99429.50;5014967;28;20312;-82
2022/06/20 09:49:38;;;;;;;;;;;;;;;22.33;100.00;99437.59;5015150;28;20304;-81
2022/06/20 09:52:06;;;;;;;;;;;;;;;23.21;100.00;99432.34;4981882;28;20424;-81
2022/06/20 09:54:38;;;;;;;;;;;;;;;23.56;100.00;99432.22;5014884;28;19926;-81
2022/06/20 09:57:27;;;;;;;;;;;;;;;23.08;100.00;99435.53;4999099;28;19965;-83
2022/06/20 10:00:05;;;;;;;;;;;;;;;23.29;100.00;99409.91;4979088;28;20509;-81
2022/06/20 10:02:44;;;;;;;;;;;;;;;23.27;100.00;99423.88;4993942;28;20032;-82
2022/06/20 10:05:11;;;;;;;;;;;;;;;23.72;100.00;99438.09;4998536;28;19925;-81
2022/06/20 10:07:51;;;;;;;;;;;;;;;23.67;100.00;99423.78;4998461;28;20016;-82
2022/06/20 10:10:42;;;;;;;;;;;;;;;23.53;100.00;99434.03;5014688;28;19935;-82
2022/06/20 10:13:18;;;;;;;;;;;;;;;23.58;100.00;99432.50;4998162;28;19933;-82
2022/06/20 10:15:52;;;;;;;;;;;;;;;23.34;100.00;99426.28;5014939;28;19940;-82
2022/06/20 10:18:28;;;;;;;;;;;;;;;23.11;100.00;99437.38;5030633;28;19936;-82
2022/06/20 10:21:10;;;;;;;;;;;;;;;23.17;100.00;99416.72;5055912;28;20400;-84
2022/06/20 10:24:00;;;;;;;;;;;;;;;22.91;100.00;99426.03;5054988;28;19924;-81
2022/06/20 10:26:39;;;;;;;;;;;;;;;22.88;100.00;99412.78;5055108;28;19924;-82
2022/06/20 10:29:19;;;;;;;;;;;;;;;22.43;100.00;99412.63;5071140;28;20529;-84
2022/06/20 10:32:02;;;;;;;;;;;;;;;22.78;100.00;99425.56;5054729;28;19932;-84
2022/06/20 10:34:49;;;;;;;;;;;;;;;22.13;100.00;99409.06;5055226;28;19924;-83
2022/06/20 10:37:34;;;;;;;;;;;;;;;21.59;100.00;99404.00;5054872;28;20310;-83
2022/06/20 10:40:10;;;;;;;;;;;;;;;21.99;100.00;99418.41;5044404;28;19924;-83
2022/06/20 10:43:00;;;;;;;;;;;;;;;22.00;100.00;99405.75;5072311;28;20074;-83
2022/06/20 10:45:32;;;;;;;;;;;;;;;22.26;100.00;99409.53;5038459;28;20080;-83
2022/06/20 10:48:02;;;;;;;;;;;;;;;21.87;100.00;99402.44;5074246;28;19928;-83
2022/06/20 10:50:29;;;;;;;;;;;;;;;21.15;100.00;99403.97;5074051;28;19931;-83
2022/06/20 10:52:58;;;;;;;;;;;;;;;21.27;100.00;99411.44;5063035;28;20368;-82
2022/06/20 10:55:25;;;;;;;;;;;;;;;21.28;100.00;99400.84;5048018;28;20043;-81
2022/06/20 10:57:55;;;;;;;;;;;;;;;20.71;100.00;99390.88;5070598;28;20310;-79
2022/06/20 11:00:25;;;;;;;;;;;;;;;21.20;100.00;99405.34;5070363;28;19978;-81
2022/06/20 11:03:07;;;;;;;;;;;;;;;21.45;100.00;99395.47;5072159;28;19931;-81
2022/06/20 11:05:34;;;;;;;;;;;;;;;21.17;100.00;99403.47;5071412;28;19925;-81
2022/06/20 11:08:12;;;;;;;;;;;;;;;21.22;100.00;99395.03;5071753;28;19924;-85
2022/06/20 11:10:48;;;;;;;;;;;;;;;21.61;100.00;99389.28;5064132;28;19939;-81
2022/06/20 11:13:19;;;;;;;;;;;;;;;22.30;100.00;99389.38;5074221;28;20007;-80
2022/06/20 11:15:46;;;;;;;;;;;;;;;22.46;100.00;99386.03;5074345;28;19925;-81
2022/06/20 11:18:27;;;;;;;;;;;;;;;22.10;100.00;99392.97;5073666;28;19956;-82
2022/06/20 11:21:05;;;;;;;;;;;;;;;22.51;100.00;99388.97;5065620;28;19924;-80
2022/06/20 11:23:38;;;;;;;;;;;;;;;22.24;100.00;99385.69;5074726;28;19931;-80
2022/06/20 11:26:14;;;;;;;;;;;;;;;20.90;100.00;99392.31;5074781;28;19924;-80
2022/06/20 11:28:57;;;;;;;;;;;;;;;21.09;100.00;99390.91;5072978;28;20015;-80
2022/06/20 11:31:42;;;;;;;;;;;;;;;21.43;100.00;99374.00;5073489;28;19978;-79
2022/06/20 11:34:24;;;;;;;;;;;;;;;21.24;100.00;99378.31;5072621;28;20343;-79
2022/06/20 11:37:09;;;;;;;;;;;;;;;21.74;100.00;99370.69;5073377;28;19931;-80
2022/06/20 11:39:46;;;;;;;;;;;;;;;21.22;100.00;99368.69;5067979;28;19934;-79
2022/06/20 11:42:13;;;;;;;;;;;;;;;21.35;100.00;99366.34;5074570;28;19932;-79
2022/06/20 11:44:39;;;;;;;;;;;;;;;21.50;100.00;99372.81;5056526;28;19929;-79
2022/06/20 11:47:30;;;;;;;;;;;;;;;21.91;100.00;99351.81;5074375;28;19931;-81
2022/06/20 11:50:00;;;;;;;;;;;;;;;22.34;100.00;99356.59;5034692;28;20436;-80
2022/06/20 11:52:46;;;;;;;;;;;;;;;21.33;100.00;99352.63;5051796;28;19924;-80
2022/06/20 11:55:40;;;;;;;;;;;;;;;20.93;100.00;99362.94;5034903;28;20019;-79
2022/06/20 11:58:17;;;;;;;;;;;;;;;20.65;100.00;99344.53;5052226;28;19928;-80
2022/06/20 12:00:48;;;;;;;;;;;;;;;21.08;100.00;99343.91;5035213;28;19925;-80
2022/06/20 12:03:18;;;;;;;;;;;;;;;21.91;100.00;99351.81;5034536;28;19932;-80
2022/06/20 12:05:54;;;;;;;;;;;;;;;21.55;100.00;99343.72;5051532;28;19928;-80
2022/06/20 12:08:21;;;;;;;;;;;;;;;21.67;100.00;99348.31;5035195;28;19978;-81
2022/06/20 12:10:58;;;;;;;;;;;;;;;21.89;100.00;99343.00;5034931;28;19929;-80
2022/06/20 12:13:34;;;;;;;;;;;;;;;22.34;100.00;99333.81;5034826;28;19933;-80
2022/06/20 12:16:20;;;;;;;;;;;;;;;22.83;100.00;99341.47;5051298;28;19979;-80
2022/06/20 12:24:33;;;;;;;;;;;;;;;22.38;100.00;99334.41;5032673;28;19932;-81
2022/06/20 12:27:07;;;;;;;;;;;;;;;22.00;100.00;99342.38;5046867;28;20019;-81
2022/06/20 12:29:36;;;;;;;;;;;;;;;21.67;100.00;99336.94;5059644;28;19932;-79
2022/06/20 12:32:05;;;;;;;;;;;;;;;21.32;100.00;99331.19;5073781;28;20013;-82
2022/06/20 12:34:49;;;;;;;;;;;;;;;21.37;100.00;99339.00;5073269;28;19925;-82
2022/06/20 12:37:43;;;;;;;;;;;;;;;21.48;100.00;99338.41;5056591;28;19925;-84
2022/06/20 12:40:10;;;;;;;;;;;;;;;21.35;100.00;99327.34;5071877;28;20470;-85
2022/06/20 12:42:37;;;;;;;;;;;;;;;21.63;100.00;99313.59;5072566;28;19925;-82
2022/06/20 12:45:30;;;;;;;;;;;;;;;21.64;100.00;99317.22;5073040;28;19978;-83
2022/06/20 12:48:16;;;;;;;;;;;;;;;21.41;100.00;99310.38;5039825;28;19925;-83
2022/06/20 12:50:46;;;;;;;;;;;;;;;21.49;100.00;99311.56;5056476;28;19931;-84
2022/06/20 12:53:29;;;;;;;;;;;;;;;21.54;100.00;99312.94;5057603;28;19974;-84
2022/06/20 12:55:59;;;;;;;;;;;;;;;22.30;100.00;99315.38;5062951;28;19959;-83
2022/06/20 12:58:29;;;;;;;;;;;;;;;22.50;100.00;99310.53;5064777;28;20025;-82
2022/06/20 13:00:57;;;;;;;;;;;;;;;21.92;100.00;99313.56;5066287;28;20014;-83
2022/06/20 13:03:23;;;;;;;;;;;;;;;21.87;100.00;99302.09;5052042;28;19925;-82
2022/06/20 13:06:11;;;;;;;;;;;;;;;21.38;100.00;99297.94;5074445;28;20031;-83
2022/06/20 13:08:46;;;;;;;;;;;;;;;21.63;100.00;99296.53;5049986;28;19933;-83
2022/06/20 13:11:13;;;;;;;;;;;;;;;21.47;100.00;99288.53;5053821;28;20439;-82
2022/06/20 13:13:46;;;;;;;;;;;;;;;21.32;100.00;99304.81;5073981;28;19932;-83
2022/06/20 13:16:16;;;;;;;;;;;;;;;21.57;100.00;99298.50;5053690;28;19931;-83
2022/06/20 13:19:03;;;;;;;;;;;;;;;22.13;100.00;99289.53;5052428;28;20322;-83
2022/06/20 13:21:45;;;;;;;;;;;;;;;22.36;100.00;99291.41;5052123;28;19929;-83
2022/06/20 13:24:18;;;;;;;;;;;;;;;21.94;100.00;99307.38;5042952;28;19932;-83
2022/06/20 13:27:04;;;;;;;;;;;;;;;21.64;100.00;99295.25;5066806;28;20018;-83
2022/06/20 13:29:43;;;;;;;;;;;;;;;21.61;100.00;99293.41;5072094;28;19924;-82
2022/06/20 13:32:25;;;;;;;;;;;;;;;21.57;100.00;99301.34;5073160;28;19924;-83
2022/06/20 13:35:11;;;;;;;;;;;;;;;21.75;100.00;99284.06;5023032;28;19924;-82
2022/06/20 13:37:44;;;;;;;;;;;;;;;21.33;100.00;99300.69;5072243;28;19925;-83
2022/06/20 13:40:30;;;;;;;;;;;;;;;21.69;100.00;99291.72;5075523;28;19924;-82
2022/06/20 13:42:57;;;;;;;;;;;;;;;22.19;100.00;99281.88;5069509;28;19946;-83
2022/06/20 13:45:32;;;;;;;;;;;;;;;21.93;100.00;99292.34;5058585;28;20388;-82
2022/06/20 13:48:06;;;;;;;;;;;;;;;22.26;100.00;99286.38;5070650;28;19951;-83
2022/06/20 13:50:55;;;;;;;;;;;;;;;21.46;100.00;99283.31;5054314;28;19928;-83
2022/06/20 13:53:22;;;;;;;;;;;;;;;21.66;100.00;99295.53;5049703;28;19924;-82
2022/06/20 13:56:02;;;;;;;;;;;;;;;21.96;100.00;99288.53;5074389;28;19931;-82
2022/06/20 13:58:53;;;;;;;;;;;;;;;21.77;100.00;99284.38;5054268;28;19929;-82